Acampo, CA

7:32 AM PDT on October 02, 2014 (GMT -0700)
M2 Winery in Lodi Wine Country | Change Station
CLOSE
Current Station
Personal Weather Station
Location: Acampo, CA
Elevation: 43 ft
Nearby Weather Stations

Elev 43 ft 38.19 °N, 121.28 °W | Updated 2 minutes ago

Clear
Clear
47.1 °F
Feels Like 47 °F
N
0.0
Wind Variable Wind from North
Gusts 0.0 mph

Today
High -- | Low -- °F
--% Chance of Precip.
Yesterday
High -- | Low -- °F
Precip. -- in
7:01 AM 6:46 PM
First Quarter, 59% visible
Pressure 29.99 in
Visibility 10.0 miles
Clouds Clear
Windchill 47 °F
Dew Point 44 °F
Humidity 89%
Rainfall 0.00 in
Snow Depth 0 in , 1 in , 4 in
UV 0.0 out of 12
Pollen 5.40 out of 12
PM2.5 Good
Flu Activity Not available.
METAR KSCK 021355Z AUTO 29003KT 10SM CLR 12/07 A2999 RMK AO2 SLP156 T01220072 TSNO $

More Conditions Fewer Conditions

Pressure 29.99 in
Visibility 10.0 miles
Clouds Clear
Windchill 47 °F
Dew Point 44 °F
Humidity 89%
Rainfall 0.00 in
Snow Depth 0 in , 1 in , 4 in
UV 0.0 out of 12
Pollen 5.40 out of 12
PM2.5 Good
Flu Activity Not available.
METAR KSCK 021355Z AUTO 29003KT 10SM CLR 12/07 A2999 RMK AO2 SLP156 T01220072 TSNO $

More Conditions Fewer Conditions

10-Day Weather Forecast

Almanac

Astronomy

Oct. 02, 2014 Rise Set
Actual Time 7:01 AM PDT 6:46 PM PDT
Civil Twilight 6:35 AM PDT 7:12 PM PDT
Nautical Twilight 6:04 AM PDT 7:42 PM PDT
Astronomical Twilight 5:33 AM PDT 8:13 PM PDT
Moon 2:52 PM PDT 12:28 AM PDT
Length of Visible Light 12h 37m
Length of Day
11h 44m
Tomorrow will be 2m 26s shorter.
First Quarter, 59% of the Moon is Illuminated
Today
First Quarter
Oct 8
Full
Oct 15
Last Quarter
Oct 23
New
Oct 30
First Quarter

Today's Extremes

State Highs State Lows

Community

WunderPhotos

Upload Photos

1,758,255 photos uploaded!

WunderBlogs® & News

By Dr. Jeff Masters
Director of Meteorology, Weather Underground
By Kari Strenfel
Meteorologist, Weather Underground
By Christopher C. Burt
Weather Historian, Weather Underground
October 2, 2014
October 2, 2014
October 2, 2014

Nearby

Air Quality

  Air Quality AQ Index Pollutant
Yesterday Good
OZONE
Yesterday Good
PM2.5
Current Good
PM2.5
Thursday Moderate
OZONE
Friday Moderate
OZONE
Saturday Unhealthy for Sensitive Groups
OZONE
Sunday Unhealthy for Sensitive Groups
OZONE
Monday Unhealthy for Sensitive Groups
OZONE

Snow Depth

Station Depth Elevation
Independence Camp 0 in 7000 ft
Horse Meadow 1 in 8631 ft
CSS Lab 4 in 6900 ft
Rubicon #2 1 in 7500 ft
Summit Meadow 2 in 9122 ft

Earthquake Activity

City Distance Mag. Time & Date
South Dos Palos, California 110 miles 3.0 11:17 AM PDT
2014-10-01
Hayfork, California 172 miles 2.5 11:28 PM PDT
2014-09-30
East Foothills, California 58 miles 2.6 3:34 PM PDT
2014-09-30
South Dos Palos, California 110 miles 2.7 3:08 PM PDT
2014-09-30
Minimum magnitude displayed is 2.5.

Coastal Water Temperatures

Place Temperature
San Francisco, CA 64.9 °F
Richmond, CA 66.9 °F
Port Chicago, CA 69.1 °F

Nearby Weather Stations